Time;durP1;ratioP1;P1;durP2;ratioP2;P2;SDS_P1;SDS_P2;PMS_P1;PMS_P2;Temp;Humidity;BMP_temperature;BMP_pressure;BME280_temperature;BME280_humidity;BME280_pressure;Samples;Min_cycle;Max_cycle;Signal;HPM_P1;HPM_P2
2023/07/10 00:00:42;;;;;;;14.20;7.38;;;;;;;15.19;100.00;93472.03;2568378;23;20338;-83
2023/07/10 00:01:51;;;;;;;21.38;7.63;;;;;;;15.19;100.00;93469.34;2547424;23;20005;-82
2023/07/10 00:02:58;;;;;;;11.82;7.60;;;;;;;15.18;100.00;93472.47;2547068;23;20013;-85
2023/07/10 00:04:07;;;;;;;12.00;7.38;;;;;;;15.17;100.00;93473.66;2557177;23;20009;-83
2023/07/10 00:05:25;;;;;;;13.00;7.50;;;;;;;15.13;100.00;93473.03;2559460;23;20020;-82
2023/07/10 00:06:33;;;;;;;12.20;7.25;;;;;;;15.15;100.00;93468.72;2558178;23;20380;-82
2023/07/10 00:07:43;;;;;;;16.48;7.75;;;;;;;15.28;100.00;93474.06;2568251;23;20011;-81
2023/07/10 00:08:51;;;;;;;12.48;7.88;;;;;;;15.30;100.00;93475.13;2571860;22;20079;-83
2023/07/10 00:09:58;;;;;;;11.15;7.32;;;;;;;15.34;100.00;93477.69;2580183;23;20003;-83
2023/07/10 00:11:03;;;;;;;12.95;8.02;;;;;;;15.34;100.00;93472.31;2557417;23;20009;-83
2023/07/10 00:12:20;;;;;;;14.60;7.68;;;;;;;15.25;100.00;93475.66;2568507;23;20442;-83
2023/07/10 00:13:26;;;;;;;19.23;7.40;;;;;;;15.28;100.00;93474.06;2571216;23;20230;-82
2023/07/10 00:14:33;;;;;;;11.20;7.35;;;;;;;15.34;100.00;93470.34;2569695;23;20057;-82
2023/07/10 00:15:41;;;;;;;10.00;6.88;;;;;;;15.35;100.00;93468.41;2568115;23;20001;-83
2023/07/10 00:16:52;;;;;;;13.77;7.07;;;;;;;15.33;100.00;93471.56;2568863;23;20000;-82
2023/07/10 00:18:01;;;;;;;18.80;8.30;;;;;;;15.33;100.00;93462.72;2570321;23;20048;-82
2023/07/10 00:19:16;;;;;;;12.05;7.53;;;;;;;15.20;100.00;93457.38;2569392;23;20517;-82
2023/07/10 00:20:28;;;;;;;13.02;6.85;;;;;;;15.15;100.00;93459.88;2558179;23;20012;-83
2023/07/10 00:21:34;;;;;;;11.20;7.13;;;;;;;15.14;100.00;93467.19;2560636;23;20016;-83
2023/07/10 00:22:41;;;;;;;11.60;7.03;;;;;;;15.19;100.00;93463.19;2556975;23;20060;-82
2023/07/10 00:23:49;;;;;;;11.77;7.45;;;;;;;15.21;100.00;93460.81;2557236;23;20008;-81
2023/07/10 00:24:56;;;;;;;12.93;7.93;;;;;;;15.19;100.00;93449.72;2546339;23;20009;-81
2023/07/10 00:26:22;;;;;;;17.67;7.55;;;;;;;15.19;100.00;93450.50;2558678;23;20084;-83
2023/07/10 00:27:31;;;;;;;13.57;6.43;;;;;;;15.04;100.00;93449.47;2573188;23;20008;-82
2023/07/10 00:28:39;;;;;;;9.48;7.38;;;;;;;15.09;100.00;93452.34;2582843;22;20008;-82
2023/07/10 00:29:47;;;;;;;12.85;7.00;;;;;;;15.05;100.00;93456.34;2568007;23;20066;-82
2023/07/10 00:30:52;;;;;;;13.73;6.93;;;;;;;15.15;100.00;93449.88;2557401;23;20016;-81
2023/07/10 00:32:01;;;;;;;14.05;6.70;;;;;;;15.13;100.00;93448.78;2570173;22;20004;-82
2023/07/10 00:33:14;;;;;;;9.88;6.60;;;;;;;15.09;100.00;93449.66;2580438;23;20099;-83
2023/07/10 00:34:25;;;;;;;13.20;7.15;;;;;;;15.17;100.00;93460.94;2558197;23;20212;-83
2023/07/10 00:35:30;;;;;;;12.68;6.30;;;;;;;15.17;100.00;93450.16;2560475;23;20005;-82
2023/07/10 00:36:42;;;;;;;14.50;7.43;;;;;;;15.10;100.00;93459.25;2556611;23;20004;-82
2023/07/10 00:38:02;;;;;;;14.27;6.93;;;;;;;15.16;100.00;93456.00;2560274;23;20032;-83
2023/07/10 00:39:34;;;;;;;9.50;6.75;;;;;;;15.23;100.00;93466.50;2559773;23;20395;-84
2023/07/10 00:40:46;;;;;;;20.33;7.55;;;;;;;15.34;100.00;93488.47;2554867;23;20087;-83
2023/07/10 00:42:17;;;;;;;11.15;7.63;;;;;;;15.25;100.00;93491.84;2562702;23;20005;-82
2023/07/10 00:43:49;;;;;;;13.18;7.30;;;;;;;15.29;100.00;93505.19;2568023;23;20023;-83
2023/07/10 00:45:00;;;;;;;17.20;8.30;;;;;;;15.31;100.00;93508.94;2570836;23;20012;-81
2023/07/10 00:46:19;;;;;;;13.23;7.82;;;;;;;15.31;100.00;93521.66;2573262;23;20572;-81
2023/07/10 00:47:39;;;;;;;13.48;7.88;;;;;;;15.27;100.00;93512.94;2573716;23;20015;-81
2023/07/10 00:48:59;;;;;;;16.20;8.20;;;;;;;15.23;100.00;93505.00;2561588;23;20012;-84
2023/07/10 00:50:21;;;;;;;14.52;8.10;;;;;;;15.29;100.00;93503.25;2561472;23;20395;-83
2023/07/10 00:51:44;;;;;;;11.52;7.53;;;;;;;15.28;100.00;93498.31;2578396;22;20307;-81
2023/07/10 00:52:54;;;;;;;12.82;7.82;;;;;;;15.31;100.00;93505.50;2568933;23;20103;-83
2023/07/10 00:54:16;;;;;;;15.77;8.23;;;;;;;15.34;100.00;93510.00;2547027;23;20005;-84
2023/07/10 00:55:40;;;;;;;21.30;8.07;;;;;;;15.45;100.00;93523.09;2551695;23;20462;-83
2023/07/10 00:56:53;;;;;;;14.00;8.10;;;;;;;15.46;100.00;93524.63;2564575;23;20427;-83
2023/07/10 00:58:21;;;;;;;13.23;7.80;;;;;;;15.40;100.00;93529.81;2570230;23;20035;-83
2023/07/10 00:59:42;;;;;;;20.08;8.57;;;;;;;15.38;100.00;93537.59;2561398;23;20450;-83
2023/07/10 01:01:11;;;;;;;13.50;7.85;;;;;;;15.36;100.00;93529.94;2551013;23;20016;-83
2023/07/10 01:02:19;;;;;;;17.35;8.23;;;;;;;15.42;100.00;93537.47;2561001;23;20004;-84
2023/07/10 01:03:25;;;;;;;14.23;8.02;;;;;;;15.35;100.00;93530.38;2571145;22;20342;-82
2023/07/10 01:04:33;;;;;;;19.17;8.00;;;;;;;15.38;100.00;93534.88;2567923;23;20047;-83
2023/07/10 01:05:43;;;;;;;14.27;8.35;;;;;;;15.45;100.00;93531.19;2570456;22;20012;-83
2023/07/10 01:06:54;;;;;;;14.60;7.95;;;;;;;15.36;100.00;93532.66;2567014;23;20128;-83
2023/07/10 01:08:03;;;;;;;11.85;7.72;;;;;;;15.41;100.00;93522.47;2558120;23;20009;-82
2023/07/10 01:09:14;;;;;;;17.50;8.30;;;;;;;15.41;100.00;93531.34;2559713;23;20063;-83
2023/07/10 01:10:23;;;;;;;14.02;7.63;;;;;;;15.46;100.00;93524.63;2582537;22;20071;-82
2023/07/10 01:11:34;;;;;;;14.15;7.88;;;;;;;15.52;100.00;93525.56;2567352;23;20083;-82
2023/07/10 01:12:48;;;;;;;16.45;8.65;;;;;;;15.49;100.00;93529.88;2548182;23;20289;-83
2023/07/10 01:14:26;;;;;;;17.38;8.85;;;;;;;15.42;100.00;93535.53;2548954;23;20498;-82
2023/07/10 01:15:27;;;;;;;17.05;8.00;;;;;;;15.52;100.00;93526.31;2582389;22;20407;-83
2023/07/10 01:16:30;;;;;;;16.40;9.32;;;;;;;15.45;100.00;93521.19;2568183;23;20051;-83
2023/07/10 01:17:35;;;;;;;17.70;7.78;;;;;;;15.49;100.00;93524.50;2556867;23;20001;-83
2023/07/10 01:18:38;;;;;;;20.40;7.72;;;;;;;15.51;100.00;93527.53;2556561;23;20093;-83
2023/07/10 01:19:41;;;;;;;13.80;7.95;;;;;;;15.45;100.00;93515.81;2556468;23;20477;-82
2023/07/10 01:20:49;;;;;;;17.08;8.30;;;;;;;15.44;100.00;93514.28;2543123;23;20015;-83
2023/07/10 01:21:50;;;;;;;22.25;8.45;;;;;;;15.37;100.00;93514.53;2546384;23;20006;-83
2023/07/10 01:22:55;;;;;;;17.15;7.90;;;;;;;15.41;100.00;93520.56;2543424;23;20002;-84
2023/07/10 01:24:00;;;;;;;17.33;7.85;;;;;;;15.40;100.00;93516.34;2556802;23;20001;-83
2023/07/10 01:25:01;;;;;;;16.50;7.90;;;;;;;15.45;100.00;93513.13;2580334;23;20008;-83
2023/07/10 01:26:06;;;;;;;19.08;8.80;;;;;;;15.49;100.00;93518.34;2568027;23;20293;-82
2023/07/10 01:27:12;;;;;;;14.35;7.78;;;;;;;15.49;100.00;93524.50;2570089;23;20004;-82
2023/07/10 01:28:16;;;;;;;11.85;7.40;;;;;;;15.51;100.00;93522.13;2557757;23;20423;-83
2023/07/10 01:29:33;;;;;;;15.65;8.05;;;;;;;15.53;100.00;93517.03;2545219;23;20076;-83
2023/07/10 01:30:36;;;;;;;13.80;7.90;;;;;;;15.51;100.00;93507.91;2572021;23;20008;-82
2023/07/10 01:31:46;;;;;;;17.15;8.50;;;;;;;15.47;100.00;93508.03;2581401;23;20454;-83
2023/07/10 01:32:49;;;;;;;15.32;8.38;;;;;;;15.55;100.00;93506.59;2581854;23;19996;-83
2023/07/10 01:33:56;;;;;;;15.25;8.60;;;;;;;15.57;100.00;93501.50;2569130;23;20094;-83
2023/07/10 01:35:05;;;;;;;14.13;8.00;;;;;;;15.55;100.00;93514.69;2580834;23;20000;-83
2023/07/10 01:36:11;;;;;;;14.07;8.00;;;;;;;15.60;100.00;93514.13;2567693;23;20269;-83
2023/07/10 01:37:12;;;;;;;14.02;8.15;;;;;;;15.55;100.00;93516.63;2569935;22;20120;-83
2023/07/10 01:38:14;;;;;;;14.52;8.10;;;;;;;15.57;100.00;93522.31;2567276;23;20025;-82
2023/07/10 01:39:15;;;;;;;20.98;8.65;;;;;;;15.58;100.00;93524.59;2555596;23;20404;-83
2023/07/10 01:40:22;;;;;;;15.23;8.73;;;;;;;15.56;100.00;93518.88;2567303;23;20083;-84
2023/07/10 01:41:39;;;;;;;12.52;8.02;;;;;;;15.56;100.00;93518.13;2557933;23;20009;-82
2023/07/10 01:42:40;;;;;;;15.40;8.23;;;;;;;15.58;100.00;93511.13;2558727;23;20005;-83
2023/07/10 01:43:41;;;;;;;18.02;8.35;;;;;;;15.55;100.00;93513.94;2542933;23;20012;-83
2023/07/10 01:44:44;;;;;;;12.00;8.18;;;;;;;15.56;100.00;93508.09;2555334;23;20367;-83
2023/07/10 01:45:48;;;;;;;14.27;8.27;;;;;;;15.60;100.00;93502.59;2567787;23;20008;-84
2023/07/10 01:46:49;;;;;;;18.52;8.30;;;;;;;15.51;100.00;93499.81;2566981;23;20099;-83
2023/07/10 01:47:52;;;;;;;16.15;8.20;;;;;;;15.48;100.00;93498.00;2568152;22;20004;-83
2023/07/10 01:48:57;;;;;;;12.95;7.63;;;;;;;15.51;100.00;93489.06;2580343;23;20699;-83
2023/07/10 01:49:58;;;;;;;13.70;8.65;;;;;;;15.56;100.00;93497.31;2555840;23;20016;-82
2023/07/10 01:50:59;;;;;;;14.82;8.40;;;;;;;15.55;100.00;93493.13;2567779;23;20055;-83
2023/07/10 01:52:05;;;;;;;13.05;8.60;;;;;;;15.56;100.00;93491.94;2542667;23;20093;-83
2023/07/10 01:53:11;;;;;;;15.88;8.75;;;;;;;15.63;100.00;93490.94;2570136;22;19996;-82
2023/07/10 01:54:14;;;;;;;12.02;7.78;;;;;;;15.67;100.00;93490.81;2567618;23;20466;-82
2023/07/10 01:55:18;;;;;;;14.13;8.05;;;;;;;15.63;100.00;93488.25;2556143;23;20001;-83
2023/07/10 01:56:21;;;;;;;16.00;8.77;;;;;;;15.57;100.00;93496.13;2567963;23;20084;-83
2023/07/10 01:57:25;;;;;;;12.77;7.22;;;;;;;15.62;100.00;93489.41;2555911;23;20112;-83
2023/07/10 01:58:27;;;;;;;10.55;7.75;;;;;;;15.61;100.00;93491.34;2544689;23;20009;-84
2023/07/10 01:59:28;;;;;;;16.38;8.43;;;;;;;15.58;100.00;93486.88;2543976;23;20369;-83
2023/07/10 02:00:29;;;;;;;15.20;8.05;;;;;;;15.59;100.00;93490.31;2543411;23;20016;-82
2023/07/10 02:01:30;;;;;;;11.95;8.77;;;;;;;15.53;100.00;93487.41;2555964;23;20047;-83
2023/07/10 02:02:32;;;;;;;11.63;7.72;;;;;;;15.55;100.00;93492.38;2555796;23;20059;-82
2023/07/10 02:03:36;;;;;;;10.73;7.53;;;;;;;15.57;100.00;93495.38;2543037;23;20065;-83
2023/07/10 02:04:38;;;;;;;15.30;8.07;;;;;;;15.58;100.00;93503.03;2556944;23;20005;-81
2023/07/10 02:05:39;;;;;;;15.73;9.02;;;;;;;15.60;100.00;93507.97;2568178;23;20347;-83
2023/07/10 02:06:43;;;;;;;16.83;8.20;;;;;;;15.59;100.00;93507.22;2579034;23;20019;-83
2023/07/10 02:07:44;;;;;;;13.05;7.80;;;;;;;15.64;100.00;93505.16;2568160;23;20013;-83
2023/07/10 02:08:45;;;;;;;14.60;8.45;;;;;;;15.60;100.00;93503.34;2568389;23;20079;-83
2023/07/10 02:09:46;;;;;;;12.50;8.10;;;;;;;15.59;100.00;93504.53;2555088;23;20008;-83
2023/07/10 02:10:51;;;;;;;17.42;7.75;;;;;;;15.58;100.00;93508.44;2555288;23;20040;-83
2023/07/10 02:11:54;;;;;;;12.55;7.53;;;;;;;15.64;100.00;93502.47;2555803;23;20009;-84
2023/07/10 02:13:01;;;;;;;12.77;8.40;;;;;;;15.62;100.00;93514.41;2545763;23;20009;-83
2023/07/10 02:14:05;;;;;;;12.88;7.82;;;;;;;15.54;100.00;93507.78;2556617;23;20013;-83
2023/07/10 02:15:08;;;;;;;15.43;7.60;;;;;;;15.58;100.00;93504.94;2555831;23;20004;-83
2023/07/10 02:16:11;;;;;;;15.18;7.70;;;;;;;15.59;100.00;93507.22;2543763;23;20085;-83
2023/07/10 02:17:12;;;;;;;18.80;8.48;;;;;;;15.64;100.00;93505.94;2556346;23;20009;-83
2023/07/10 02:18:13;;;;;;;20.25;8.38;;;;;;;15.57;100.00;93501.50;2580506;22;20008;-83
2023/07/10 02:19:14;;;;;;;15.27;8.10;;;;;;;15.64;100.00;93499.78;2580052;23;20031;-83
2023/07/10 02:32:23;;;;;;;10.95;8.95;;;;;;;15.86;100.00;93530.94;2622672;21;20459;-82
2023/07/10 02:33:24;;;;;;;11.32;7.90;;;;;;;15.90;100.00;93538.91;2596697;22;20072;-84
2023/07/10 02:34:25;;;;;;;12.60;8.13;;;;;;;15.93;100.00;93542.66;2571238;23;20012;-83
2023/07/10 02:35:30;;;;;;;11.98;8.52;;;;;;;15.91;100.00;93543.13;2596855;22;20434;-82
2023/07/10 02:36:36;;;;;;;10.52;7.95;;;;;;;15.97;100.00;93530.56;2609207;22;20010;-82
2023/07/10 02:37:37;;;;;;;12.93;8.50;;;;;;;16.06;100.00;93524.47;2584646;22;20007;-83
2023/07/10 02:38:38;;;;;;;12.77;8.25;;;;;;;16.01;100.00;93533.88;2584259;23;20090;-84
2023/07/10 02:39:39;;;;;;;11.73;8.40;;;;;;;15.98;100.00;93539.41;2570287;23;20015;-84
2023/07/10 02:40:42;;;;;;;12.63;7.43;;;;;;;16.03;100.00;93544.25;2583947;22;20420;-83
2023/07/10 02:41:43;;;;;;;14.45;7.85;;;;;;;16.02;100.00;93545.41;2613898;22;20010;-82
2023/07/10 02:42:45;;;;;;;12.18;8.55;;;;;;;16.02;100.00;93542.72;2606160;22;20464;-83
2023/07/10 02:43:48;;;;;;;11.43;7.47;;;;;;;16.02;100.00;93546.19;2581213;23;20031;-82
2023/07/10 02:44:49;;;;;;;12.90;8.35;;;;;;;15.97;100.00;93541.34;2562660;23;20075;-84
2023/07/10 02:45:50;;;;;;;11.95;8.32;;;;;;;15.98;100.00;93542.09;2563389;23;20079;-83
2023/07/10 02:47:16;;;;;;;15.95;8.43;;;;;;;16.04;100.00;93543.06;2581087;22;20000;-83
2023/07/10 02:48:17;;;;;;;16.77;7.68;;;;;;;16.04;100.00;93549.19;2591019;22;20038;-83
2023/07/10 02:49:18;;;;;;;14.55;8.95;;;;;;;15.99;100.00;93544.38;2598209;22;20007;-83
2023/07/10 02:50:19;;;;;;;11.82;8.30;;;;;;;16.04;100.00;93549.19;2597603;22;20452;-84
2023/07/10 02:51:20;;;;;;;18.73;9.27;;;;;;;16.08;100.00;93554.47;2598040;22;20007;-83
2023/07/10 02:52:21;;;;;;;13.25;8.38;;;;;;;16.07;100.00;93552.97;2609468;22;20009;-83
2023/07/10 02:53:22;;;;;;;17.05;8.48;;;;;;;16.04;100.00;93543.06;2586052;23;20012;-83
2023/07/10 02:54:23;;;;;;;15.45;8.20;;;;;;;16.06;100.00;93549.50;2560278;23;20001;-83
2023/07/10 02:55:25;;;;;;;18.88;8.05;;;;;;;16.05;100.00;93547.25;2584662;22;20054;-83
2023/07/10 02:56:26;;;;;;;15.20;8.45;;;;;;;16.02;100.00;93548.91;2583016;23;20008;-82
2023/07/10 02:57:29;;;;;;;16.08;8.45;;;;;;;16.09;100.00;93558.66;2570491;22;20022;-83
2023/07/10 02:58:30;;;;;;;12.55;8.60;;;;;;;16.08;100.00;93559.84;2571478;23;20057;-83
2023/07/10 02:59:31;;;;;;;16.17;8.98;;;;;;;16.11;100.00;93559.75;2571081;23;20415;-83
2023/07/10 03:00:32;;;;;;;19.55;8.38;;;;;;;16.13;100.00;93547.75;2571189;23;20004;-82
2023/07/10 03:01:39;;;;;;;15.73;8.93;;;;;;;16.14;100.00;93546.56;2585849;22;20430;-82
2023/07/10 03:02:47;;;;;;;14.02;8.77;;;;;;;16.10;100.00;93533.94;2598326;22;19999;-83
2023/07/10 03:03:55;;;;;;;18.35;8.25;;;;;;;16.10;100.00;93533.19;2584101;23;20299;-83
2023/07/10 03:05:00;;;;;;;12.90;8.40;;;;;;;16.14;100.00;93524.97;2574148;22;20000;-81
2023/07/10 03:06:04;;;;;;;15.23;8.95;;;;;;;16.14;100.00;93527.69;2597713;22;20006;-82
2023/07/10 03:07:14;;;;;;;15.43;8.02;;;;;;;16.15;100.00;93527.22;2608638;22;20036;-83
2023/07/10 03:08:22;;;;;;;16.05;8.77;;;;;;;16.25;100.00;93528.06;2573203;23;20047;-82
2023/07/10 03:09:28;;;;;;;14.35;8.65;;;;;;;16.20;100.00;93523.97;2572987;23;20096;-84
2023/07/10 03:10:38;;;;;;;15.35;8.80;;;;;;;16.16;100.00;93528.00;2561554;23;20100;-83
2023/07/10 03:11:47;;;;;;;12.30;8.32;;;;;;;16.20;100.00;93526.69;2574776;22;20008;-84
2023/07/10 03:12:51;;;;;;;17.15;9.40;;;;;;;16.25;100.00;93520.69;2589454;22;20433;-83
2023/07/10 03:14:01;;;;;;;17.17;9.05;;;;;;;16.22;100.00;93515.44;2587033;22;20011;-82
2023/07/10 03:15:12;;;;;;;15.02;8.55;;;;;;;16.27;100.00;93521.00;2588358;22;20007;-83
2023/07/10 03:16:17;;;;;;;12.60;8.40;;;;;;;16.26;100.00;93519.50;2573237;23;20012;-82
2023/07/10 03:17:20;;;;;;;17.27;8.73;;;;;;;16.26;100.00;93526.84;2573328;22;20013;-82
2023/07/10 03:18:27;;;;;;;12.98;9.25;;;;;;;16.23;100.00;93528.47;2572113;23;20002;-82
2023/07/10 03:19:36;;;;;;;23.77;9.80;;;;;;;16.27;100.00;93525.66;2581893;22;20278;-82
2023/07/10 03:20:44;;;;;;;16.08;9.40;;;;;;;16.27;100.00;93523.69;2584889;22;20023;-83
2023/07/10 03:21:50;;;;;;;17.80;9.95;;;;;;;16.23;100.00;93528.47;2583397;23;20350;-84
2023/07/10 03:22:56;;;;;;;13.98;8.88;;;;;;;16.27;100.00;93533.75;2573479;22;20391;-84
2023/07/10 03:24:04;;;;;;;16.83;9.15;;;;;;;16.28;100.00;93544.09;2592499;22;20150;-82
2023/07/10 03:25:11;;;;;;;15.50;9.68;;;;;;;16.31;100.00;93545.91;2606505;22;19995;-82
2023/07/10 03:26:30;;;;;;;17.95;9.35;;;;;;;16.34;100.00;93555.06;2595495;22;20002;-82
2023/07/10 03:27:37;;;;;;;14.55;8.88;;;;;;;16.34;100.00;93552.38;2585509;22;20008;-83
2023/07/10 03:28:44;;;;;;;16.42;8.45;;;;;;;16.38;100.00;93536.06;2583540;23;20011;-81
2023/07/10 03:29:53;;;;;;;13.45;9.15;;;;;;;16.41;100.00;93532.47;2573755;22;20004;-84
2023/07/10 03:31:02;;;;;;;16.92;9.15;;;;;;;16.39;100.00;93521.38;2586039;22;20070;-81
2023/07/10 03:32:10;;;;;;;16.02;9.30;;;;;;;16.38;100.00;93523.31;2585677;22;20008;-82
2023/07/10 03:33:22;;;;;;;20.55;9.13;;;;;;;16.31;100.00;93526.28;2582324;22;20330;-83
2023/07/10 03:34:29;;;;;;;16.42;9.75;;;;;;;16.46;100.00;93523.78;2571503;23;19997;-82
2023/07/10 03:35:36;;;;;;;20.80;9.45;;;;;;;16.43;100.00;93527.38;2569844;23;20008;-83
2023/07/10 03:36:46;;;;;;;16.30;8.95;;;;;;;16.40;100.00;93530.97;2558613;23;20001;-83
2023/07/10 03:37:55;;;;;;;14.88;8.77;;;;;;;16.41;100.00;93541.31;2582861;22;20089;-83
2023/07/10 03:39:05;;;;;;;14.30;8.30;;;;;;;16.40;100.00;93553.28;2570130;23;20477;-83
2023/07/10 03:40:23;;;;;;;14.15;8.27;;;;;;;16.44;100.00;93563.97;2560381;23;20009;-82
2023/07/10 03:41:32;;;;;;;16.90;8.45;;;;;;;16.41;100.00;93567.53;2565500;23;20033;-83
2023/07/10 03:42:37;;;;;;;14.43;8.00;;;;;;;16.52;100.00;93576.00;2565574;23;20305;-82
2023/07/10 03:43:43;;;;;;;14.52;9.25;;;;;;;16.51;100.00;93580.66;2561040;23;20443;-83
2023/07/10 03:44:50;;;;;;;14.55;9.02;;;;;;;16.50;100.00;93584.53;2590138;22;20016;-83
2023/07/10 03:45:58;;;;;;;15.55;8.40;;;;;;;16.56;100.00;93582.78;2607686;22;20037;-84
2023/07/10 03:47:06;;;;;;;15.88;8.48;;;;;;;16.61;100.00;93582.19;2581402;23;20004;-83
2023/07/10 03:48:16;;;;;;;17.30;9.00;;;;;;;16.72;100.00;93575.63;2570654;23;20016;-83
2023/07/10 03:49:28;;;;;;;17.40;9.60;;;;;;;16.79;100.00;93578.84;2560157;23;20111;-82
2023/07/10 03:50:37;;;;;;;18.23;9.27;;;;;;;16.81;100.00;93570.28;2573274;22;20075;-83
2023/07/10 03:51:45;;;;;;;16.27;9.02;;;;;;;16.77;100.00;93564.28;2583535;22;20008;-83
2023/07/10 03:52:53;;;;;;;13.80;9.38;;;;;;;16.81;100.00;93557.56;2569901;23;20535;-83
2023/07/10 03:54:01;;;;;;;14.77;9.25;;;;;;;16.79;100.00;93546.44;2570345;23;20459;-82
2023/07/10 03:55:08;;;;;;;20.42;9.75;;;;;;;16.83;100.00;93543.63;2572258;22;20447;-83
2023/07/10 03:56:16;;;;;;;16.08;9.85;;;;;;;17.00;100.00;93550.28;2581389;23;20430;-83
2023/07/10 03:57:23;;;;;;;23.45;10.40;;;;;;;17.55;100.00;93553.06;2560268;23;20005;-83
2023/07/10 03:58:35;;;;;;;19.30;11.20;;;;;;;17.83;100.00;93545.00;2571213;22;20190;-83
2023/07/10 03:59:39;;;;;;;22.85;9.82;;;;;;;18.00;100.00;93545.41;2570559;23;20028;-84
2023/07/10 04:00:46;;;;;;;26.02;10.18;;;;;;;17.93;100.00;93541.09;2569683;23;20012;-83
2023/07/10 04:01:55;;;;;;;18.55;9.88;;;;;;;17.96;100.00;93542.88;2558714;23;20035;-82
2023/07/10 04:03:00;;;;;;;19.85;10.05;;;;;;;18.50;100.00;93548.66;2570392;23;20012;-84
2023/07/10 04:04:07;;;;;;;17.58;9.20;;;;;;;18.84;100.00;93544.78;2569711;23;20004;-84
2023/07/10 04:05:10;;;;;;;19.00;9.93;;;;;;;18.78;100.00;93550.06;2558622;23;20112;-83
2023/07/10 04:06:20;;;;;;;15.98;9.77;;;;;;;18.64;100.00;93542.56;2569601;22;19997;-82
2023/07/10 04:07:27;;;;;;;20.23;9.48;;;;;;;18.60;100.00;93547.41;2570729;23;20031;-84
2023/07/10 04:08:35;;;;;;;19.20;10.43;;;;;;;18.45;100.00;93550.00;2570874;22;20024;-84
2023/07/10 04:09:40;;;;;;;19.05;10.43;;;;;;;18.40;100.00;93550.63;2582840;22;20437;-83
2023/07/10 04:10:51;;;;;;;20.17;9.98;;;;;;;18.42;100.00;93563.69;2581830;22;20000;-83
2023/07/10 04:11:57;;;;;;;24.42;9.70;;;;;;;18.42;100.00;93564.44;2570944;23;20016;-84
2023/07/10 04:13:01;;;;;;;15.07;8.23;;;;;;;18.31;100.00;93583.88;2569823;23;20015;-83
2023/07/10 04:14:10;;;;;;;19.02;8.88;;;;;;;18.23;100.00;93596.22;2569953;22;20000;-84
2023/07/10 04:15:16;;;;;;;13.90;7.83;;;;;;;17.98;100.00;93607.34;2569770;23;20000;-83
2023/07/10 04:16:30;;;;;;;12.50;8.35;;;;;;;17.92;100.00;93604.50;2570761;22;20415;-84
2023/07/10 04:17:36;;;;;;;20.88;8.95;;;;;;;17.83;100.00;93601.78;2593604;22;20007;-84
2023/07/10 04:18:42;;;;;;;19.77;8.15;;;;;;;17.79;100.00;93595.78;2569693;23;20220;-83
2023/07/10 04:19:48;;;;;;;15.38;8.70;;;;;;;17.78;100.00;93588.84;2570876;22;20087;-83
2023/07/10 04:20:55;;;;;;;11.40;8.00;;;;;;;17.68;100.00;93579.94;2582608;22;20012;-83
2023/07/10 04:22:10;;;;;;;18.73;8.38;;;;;;;17.69;100.00;93591.53;2582538;22;19996;-85
2023/07/10 04:23:18;;;;;;;14.50;8.05;;;;;;;17.64;100.00;93592.88;2571976;23;20012;-81
2023/07/10 04:24:26;;;;;;;18.70;8.55;;;;;;;17.63;100.00;93588.66;2571892;22;20008;-84
2023/07/10 04:25:33;;;;;;;14.07;8.23;;;;;;;17.63;100.00;93594.06;2582962;22;20014;-83
2023/07/10 04:26:42;;;;;;;17.67;8.60;;;;;;;17.62;100.00;93584.47;2569828;23;20008;-83
2023/07/10 04:27:47;;;;;;;14.48;8.20;;;;;;;17.64;100.00;93579.34;2581778;22;20090;-84
2023/07/10 04:28:54;;;;;;;16.20;8.52;;;;;;;17.60;100.00;93590.34;2569793;22;20308;-85
2023/07/10 04:30:08;;;;;;;16.10;8.32;;;;;;;17.57;100.00;93599.34;2580994;22;20057;-83
2023/07/10 04:31:18;;;;;;;12.50;8.60;;;;;;;17.58;100.00;93600.09;2558408;23;20414;-83
2023/07/10 04:32:26;;;;;;;14.65;8.88;;;;;;;17.52;100.00;93605.34;2563143;22;20016;-84
2023/07/10 04:33:39;;;;;;;15.10;8.20;;;;;;;17.45;100.00;93599.47;2582761;22;20568;-84
2023/07/10 04:34:47;;;;;;;16.90;8.70;;;;;;;17.41;100.00;93596.16;2579833;23;20034;-82
2023/07/10 04:35:58;;;;;;;12.70;8.15;;;;;;;17.48;100.00;93598.56;2571758;22;20023;-83
2023/07/10 04:37:03;;;;;;;16.45;8.55;;;;;;;17.44;100.00;93608.78;2569898;23;20374;-83
2023/07/10 04:38:09;;;;;;;14.30;8.80;;;;;;;17.45;100.00;93607.56;2557321;23;20005;-82
2023/07/10 04:39:15;;;;;;;16.25;8.82;;;;;;;17.44;100.00;93597.97;2570432;22;20005;-83
2023/07/10 04:40:20;;;;;;;15.23;8.65;;;;;;;17.46;100.00;93611.75;2580641;23;20186;-84
2023/07/10 04:41:28;;;;;;;17.90;9.35;;;;;;;17.55;100.00;93617.19;2559020;23;20012;-83
2023/07/10 04:42:35;;;;;;;18.42;9.30;;;;;;;17.57;100.00;93629.06;2563019;23;20012;-82
2023/07/10 04:43:42;;;;;;;15.85;8.75;;;;;;;17.67;100.00;93637.94;2580958;22;20001;-83
2023/07/10 04:44:46;;;;;;;21.48;9.18;;;;;;;17.67;100.00;93629.81;2579369;23;20008;-83
2023/07/10 04:45:49;;;;;;;16.10;9.30;;;;;;;17.72;100.00;93625.78;2575015;22;20285;-83
2023/07/10 04:46:55;;;;;;;19.33;8.95;;;;;;;17.73;100.00;93609.09;2586007;22;20465;-83
2023/07/10 04:48:02;;;;;;;16.42;8.65;;;;;;;17.75;100.00;93624.91;2585630;22;20008;-83
2023/07/10 04:49:06;;;;;;;21.38;9.02;;;;;;;17.85;100.00;93616.34;2573092;23;20005;-82
2023/07/10 04:50:10;;;;;;;22.48;9.50;;;;;;;17.85;100.00;93621.75;2560326;23;20001;-80
2023/07/10 04:51:14;;;;;;;16.92;9.30;;;;;;;17.96;100.00;93621.34;2573215;22;20358;-82
2023/07/10 04:52:19;;;;;;;19.48;9.27;;;;;;;18.19;100.00;93630.78;2584481;22;20433;-81
2023/07/10 04:53:24;;;;;;;17.70;9.25;;;;;;;18.20;100.00;93635.00;2571916;23;20000;-83
2023/07/10 04:54:31;;;;;;;18.13;8.95;;;;;;;18.17;100.00;93632.44;2584298;22;20283;-81
2023/07/10 04:55:33;;;;;;;16.73;8.98;;;;;;;18.49;100.00;93628.38;2608535;22;20017;-81
2023/07/10 04:56:41;;;;;;;16.80;8.48;;;;;;;18.50;100.00;93619.03;2595536;22;20050;-83
2023/07/10 04:57:47;;;;;;;14.05;8.23;;;;;;;18.67;100.00;93624.88;2596718;22;20505;-83
2023/07/10 04:58:58;;;;;;;12.55;8.25;;;;;;;18.52;100.00;93622.78;2595307;22;20004;-83
2023/07/10 05:00:04;;;;;;;17.02;9.45;;;;;;;18.46;100.00;93610.31;2584930;22;20383;-84
2023/07/10 05:01:10;;;;;;;15.10;8.18;;;;;;;18.33;100.00;93616.66;2571618;23;20363;-83
2023/07/10 05:02:15;;;;;;;13.45;7.93;;;;;;;18.29;100.00;93615.28;2560081;23;20004;-82
2023/07/10 05:03:19;;;;;;;13.18;7.53;;;;;;;18.37;100.00;93609.13;2559283;23;20382;-82
2023/07/10 05:04:24;;;;;;;11.80;8.35;;;;;;;18.58;100.00;93607.44;2571552;23;20083;-83
2023/07/10 05:05:31;;;;;;;18.67;9.02;;;;;;;18.48;100.00;93599.78;2559561;23;20011;-83
2023/07/10 05:06:40;;;;;;;14.65;8.93;;;;;;;18.38;100.00;93585.50;2572133;22;20005;-82
2023/07/10 05:07:44;;;;;;;13.98;7.55;;;;;;;18.34;100.00;93582.94;2584248;22;20083;-83
2023/07/10 05:08:53;;;;;;;14.55;7.80;;;;;;;18.32;100.00;93592.75;2582904;22;19999;-83
2023/07/10 05:10:00;;;;;;;13.70;8.07;;;;;;;18.28;100.00;93614.53;2584480;22;20260;-82
2023/07/10 05:11:04;;;;;;;18.08;8.40;;;;;;;18.28;100.00;93619.97;2596935;22;20082;-81
2023/07/10 05:12:13;;;;;;;17.40;8.93;;;;;;;18.18;100.00;93621.19;2606635;22;20037;-83
2023/07/10 05:13:24;;;;;;;15.40;8.15;;;;;;;18.17;100.00;93613.50;2608021;22;20407;-83
2023/07/10 05:14:26;;;;;;;12.60;8.20;;;;;;;18.24;100.00;93624.03;2582630;23;20004;-83
2023/07/10 05:15:32;;;;;;;16.50;7.53;;;;;;;18.28;100.00;93624.63;2558502;23;20032;-83
2023/07/10 05:16:35;;;;;;;13.57;8.57;;;;;;;18.21;100.00;93614.09;2572714;22;20012;-83
2023/07/10 05:17:41;;;;;;;11.68;7.65;;;;;;;18.18;100.00;93610.34;2583317;22;20079;-83
2023/07/10 05:18:47;;;;;;;12.45;8.43;;;;;;;18.16;100.00;93598.47;2583774;22;20004;-83
2023/07/10 05:19:52;;;;;;;11.98;7.65;;;;;;;18.15;100.00;93580.75;2596479;22;20554;-82
2023/07/10 05:20:58;;;;;;;17.00;8.40;;;;;;;18.15;100.00;93576.06;2595704;22;20083;-82
2023/07/10 05:22:06;;;;;;;12.32;7.95;;;;;;;18.16;100.00;93584.94;2583740;22;20004;-82